Time;durP1;ratioP1;P1;durP2;ratioP2;P2;SDS_P1;SDS_P2;PMS_P1;PMS_P2;Temp;Humidity;BMP_temperature;BMP_pressure;BME280_temperature;BME280_humidity;BME280_pressure;Samples;Min_cycle;Max_cycle;Signal;HPM_P1;HPM_P2
2022/09/20 00:00:05;;;;;;;;;;;;;;;7.60;100.00;96305.34;1026814;28;20467;-68
2022/09/20 00:00:35;;;;;;;;;;;;;;;7.59;100.00;96297.75;1035101;28;20456;-68
2022/09/20 00:01:09;;;;;;;;;;;;;;;7.56;100.00;96305.00;1038417;28;19917;-66
2022/09/20 00:01:40;;;;;;;;;;;;;;;7.55;100.00;96305.25;1040038;28;19917;-69
2022/09/20 00:02:10;;;;;;;;;;;;;;;7.53;100.00;96302.84;1043248;28;20504;-68
2022/09/20 00:02:40;;;;;;;;;;;;;;;7.54;100.00;96301.03;1042398;28;19928;-70
2022/09/20 00:03:11;;;;;;;;;;;;;;;7.53;100.00;96307.28;1044023;28;19919;-68
2022/09/20 00:03:42;;;;;;;;;;;;;;;7.50;100.00;96297.28;1046457;28;19967;-71
2022/09/20 00:04:12;;;;;;;;;;;;;;;7.51;100.00;96307.53;1047216;28;19920;-67
2022/09/20 00:04:42;;;;;;;;;;;;;;;7.51;100.00;96298.88;1042569;28;19921;-70
2022/09/20 00:05:13;;;;;;;;;;;;;;;7.49;100.00;96303.53;1042865;28;19912;-69
2022/09/20 00:05:43;;;;;;;;;;;;;;;7.46;100.00;96298.78;1037986;28;19909;-68
2022/09/20 00:06:15;;;;;;;;;;;;;;;7.46;100.00;96304.00;1035009;28;20293;-66
2022/09/20 00:06:45;;;;;;;;;;;;;;;7.46;100.00;96304.00;1030472;28;20009;-70
2022/09/20 00:07:15;;;;;;;;;;;;;;;7.45;100.00;96308.44;1031149;28;19910;-68
2022/09/20 00:07:46;;;;;;;;;;;;;;;7.45;100.00;96305.81;1038565;28;19913;-67
2022/09/20 00:08:16;;;;;;;;;;;;;;;7.44;100.00;96303.41;1035038;28;19910;-69
2022/09/20 00:08:46;;;;;;;;;;;;;;;7.44;100.00;96306.81;1042751;28;19913;-69
2022/09/20 00:09:17;;;;;;;;;;;;;;;7.42;100.00;96302.88;1043059;28;19908;-71
2022/09/20 00:09:47;;;;;;;;;;;;;;;7.44;100.00;96306.03;1043043;28;19959;-70
2022/09/20 00:10:17;;;;;;;;;;;;;;;7.44;100.00;96303.41;1040844;28;19932;-69
2022/09/20 00:10:48;;;;;;;;;;;;;;;7.41;100.00;96301.25;1036194;28;19951;-69
2022/09/20 00:11:19;;;;;;;;;;;;;;;7.39;100.00;96298.09;1030196;28;20030;-67
2022/09/20 00:11:51;;;;;;;;;;;;;;;7.38;100.00;96297.31;1031138;28;20049;-69
2022/09/20 00:12:21;;;;;;;;;;;;;;;7.38;100.00;96296.50;1035560;28;20446;-70
2022/09/20 00:12:51;;;;;;;;;;;;;;;7.37;100.00;96295.69;1042700;28;19916;-70
2022/09/20 00:13:22;;;;;;;;;;;;;;;7.36;100.00;96295.94;1039284;28;19913;-68
2022/09/20 00:13:53;;;;;;;;;;;;;;;7.33;100.00;96297.97;1042798;28;19999;-69
2022/09/20 00:14:23;;;;;;;;;;;;;;;7.33;100.00;96295.38;1039118;28;19914;-70
2022/09/20 00:14:54;;;;;;;;;;;;;;;7.32;100.00;96291.19;1042942;28;19912;-68
2022/09/20 00:15:24;;;;;;;;;;;;;;;7.32;100.00;96296.41;1047212;28;19935;-69
2022/09/20 00:15:55;;;;;;;;;;;;;;;7.32;100.00;96299.00;1040622;28;19959;-69
2022/09/20 00:16:26;;;;;;;;;;;;;;;7.35;100.00;96294.38;1038828;28;20250;-69
2022/09/20 00:16:56;;;;;;;;;;;;;;;7.33;100.00;96297.19;1030498;28;19914;-68
2022/09/20 00:17:27;;;;;;;;;;;;;;;7.31;100.00;96292.19;1031951;28;20184;-68
2022/09/20 00:17:57;;;;;;;;;;;;;;;7.31;100.00;96297.41;1038689;28;19910;-68
2022/09/20 00:18:27;;;;;;;;;;;;;;;7.31;100.00;96297.41;1035032;28;19906;-69
2022/09/20 00:18:59;;;;;;;;;;;;;;;7.31;100.00;96294.81;1038658;28;19920;-70
2022/09/20 00:19:29;;;;;;;;;;;;;;;7.31;100.00;96294.81;1038771;28;19913;-70
2022/09/20 00:20:00;;;;;;;;;;;;;;;7.30;100.00;96298.44;1042980;28;19909;-69
2022/09/20 00:20:30;;;;;;;;;;;;;;;7.31;100.00;96296.63;1043052;28;20378;-68
2022/09/20 00:21:00;;;;;;;;;;;;;;;7.30;100.00;96301.03;1041712;28;20698;-67
2022/09/20 00:21:31;;;;;;;;;;;;;;;7.32;100.00;96293.78;1038602;28;19913;-67
2022/09/20 00:22:02;;;;;;;;;;;;;;;7.30;100.00;96293.22;1038619;28;19931;-66
2022/09/20 00:22:32;;;;;;;;;;;;;;;7.30;100.00;96295.03;1039421;28;19913;-67
2022/09/20 00:23:02;;;;;;;;;;;;;;;7.30;100.00;96295.03;1038699;28;19920;-68
2022/09/20 00:23:33;;;;;;;;;;;;;;;7.29;100.00;96291.63;1038899;28;19917;-68
2022/09/20 00:24:04;;;;;;;;;;;;;;;7.29;100.00;96294.22;1034566;28;19941;-69
2022/09/20 00:24:35;;;;;;;;;;;;;;;7.29;100.00;96294.22;1038734;28;20365;-68
2022/09/20 00:25:06;;;;;;;;;;;;;;;7.28;100.00;96284.81;1038599;28;19959;-69
2022/09/20 00:25:36;;;;;;;;;;;;;;;7.30;100.00;96290.59;1039045;28;19944;-68
2022/09/20 00:26:06;;;;;;;;;;;;;;;7.30;100.00;96287.97;1042780;28;20513;-68
2022/09/20 00:26:37;;;;;;;;;;;;;;;7.28;100.00;96287.44;1043184;28;20777;-67
2022/09/20 00:27:07;;;;;;;;;;;;;;;7.28;100.00;96287.44;1042869;28;19921;-68
2022/09/20 00:27:37;;;;;;;;;;;;;;;7.28;100.00;96282.22;1042748;28;19921;-68
2022/09/20 00:28:08;;;;;;;;;;;;;;;7.26;100.00;96289.47;1038821;28;19929;-69
2022/09/20 00:28:38;;;;;;;;;;;;;;;7.26;100.00;96284.25;1038992;28;19919;-67
2022/09/20 00:29:08;;;;;;;;;;;;;;;7.26;100.00;96281.63;1038795;28;20410;-68
2022/09/20 00:29:39;;;;;;;;;;;;;;;7.27;100.00;96278.00;1038639;28;20326;-67
2022/09/20 00:30:10;;;;;;;;;;;;;;;7.28;100.00;96279.59;1034727;28;20305;-71
2022/09/20 00:30:40;;;;;;;;;;;;;;;7.28;100.00;96281.44;1042814;28;19939;-71
2022/09/20 00:31:10;;;;;;;;;;;;;;;7.27;100.00;96277.22;1033956;28;19921;-68
2022/09/20 00:31:41;;;;;;;;;;;;;;;7.28;100.00;96278.81;1038650;28;19929;-66
2022/09/20 00:32:11;;;;;;;;;;;;;;;7.27;100.00;96279.81;1038801;28;19921;-69
2022/09/20 00:32:42;;;;;;;;;;;;;;;7.28;100.00;96277.00;1038495;28;20417;-71
2022/09/20 00:33:12;;;;;;;;;;;;;;;7.29;100.00;96277.78;1042737;28;20298;-68
2022/09/20 00:35:20;;;;;;;;;;;;;;;7.30;100.00;96272.31;1040946;28;20465;-68
2022/09/20 00:35:50;;;;;;;;;;;;;;;7.30;100.00;96264.50;1041727;28;19947;-67
2022/09/20 00:36:20;;;;;;;;;;;;;;;7.30;100.00;96272.31;1045510;28;19928;-68
2022/09/20 00:36:50;;;;;;;;;;;;;;;7.33;100.00;96268.47;1047160;28;19913;-65
2022/09/20 00:37:21;;;;;;;;;;;;;;;7.32;100.00;96270.28;1047314;28;19921;-68
2022/09/20 00:37:51;;;;;;;;;;;;;;;7.31;100.00;96271.31;1046059;28;20041;-68
2022/09/20 00:38:21;;;;;;;;;;;;;;;7.30;100.00;96267.09;1043939;28;19905;-68
2022/09/20 00:38:55;;;;;;;;;;;;;;;7.29;100.00;96267.34;1043578;28;19921;-69
2022/09/20 00:39:25;;;;;;;;;;;;;;;7.31;100.00;96262.69;1043698;28;19928;-70
2022/09/20 00:39:56;;;;;;;;;;;;;;;7.31;100.00;96260.09;1039255;28;19991;-69
2022/09/20 00:40:26;;;;;;;;;;;;;;;7.31;100.00;96260.88;1035493;28;19949;-68
2022/09/20 00:40:56;;;;;;;;;;;;;;;7.30;100.00;96261.88;1034729;28;19943;-68
2022/09/20 00:41:27;;;;;;;;;;;;;;;7.30;100.00;96263.69;1039107;28;20327;-68
2022/09/20 00:41:57;;;;;;;;;;;;;;;7.30;100.00;96255.88;1043508;28;19952;-69
2022/09/20 00:42:28;;;;;;;;;;;;;;;7.27;100.00;96257.13;1035416;28;19924;-68
2022/09/20 00:42:59;;;;;;;;;;;;;;;7.29;100.00;96265.53;1035321;28;19917;-69
2022/09/20 00:43:55;;;;;;;;;;;;;;;7.29;100.00;96260.31;1031226;28;19921;-68
2022/09/20 00:44:47;;;;;;;;;;;;;;;7.29;100.00;96270.75;1034510;28;19914;-68
2022/09/20 00:45:21;;;;;;;;;;;;;;;7.29;100.00;96275.97;1039786;28;19921;-68
2022/09/20 00:45:51;;;;;;;;;;;;;;;7.27;100.00;96270.16;1039772;28;19921;-70
2022/09/20 00:46:23;;;;;;;;;;;;;;;7.29;100.00;96264.72;1040359;28;20286;-67
2022/09/20 00:46:53;;;;;;;;;;;;;;;7.27;100.00;96267.56;1039526;28;19924;-67
2022/09/20 00:47:34;;;;;;;;;;;;;;;7.26;100.00;96265.97;1039583;28;19921;-69
2022/09/20 00:48:04;;;;;;;;;;;;;;;7.28;100.00;96266.56;1039664;28;19917;-69
2022/09/20 00:48:35;;;;;;;;;;;;;;;7.29;100.00;96270.75;1043647;28;20466;-68
2022/09/20 00:49:13;;;;;;;;;;;;;;;7.26;100.00;96268.59;1043510;28;19924;-69
2022/09/20 00:49:43;;;;;;;;;;;;;;;7.25;100.00;96261.78;1040219;28;19921;-68
2022/09/20 00:50:32;;;;;;;;;;;;;;;7.25;100.00;96266.22;1034220;28;19917;-67
2022/09/20 00:51:07;;;;;;;;;;;;;;;7.22;100.00;96266.66;1030741;28;19934;-67
2022/09/20 00:51:38;;;;;;;;;;;;;;;7.20;100.00;96268.69;1036868;28;20014;-67
2022/09/20 00:52:08;;;;;;;;;;;;;;;7.20;100.00;96269.50;1042573;28;19985;-69
2022/09/20 00:52:38;;;;;;;;;;;;;;;7.21;100.00;96267.66;1043494;28;19920;-68
2022/09/20 00:53:21;;;;;;;;;;;;;;;7.21;100.00;96265.88;1043348;28;19943;-67
2022/09/20 00:53:51;;;;;;;;;;;;;;;7.21;100.00;96268.50;1043756;28;19959;-72
2022/09/20 00:54:22;;;;;;;;;;;;;;;7.22;100.00;96267.47;1039360;28;19968;-67
2022/09/20 00:54:52;;;;;;;;;;;;;;;7.22;100.00;96264.84;1037675;28;19931;-67
2022/09/20 00:55:22;;;;;;;;;;;;;;;7.19;100.00;96262.69;1035384;28;20393;-69
2022/09/20 00:55:54;;;;;;;;;;;;;;;7.20;100.00;96264.28;1031426;28;19918;-69
2022/09/20 00:56:28;;;;;;;;;;;;;;;7.19;100.00;96260.09;1031764;28;19922;-69
2022/09/20 00:56:59;;;;;;;;;;;;;;;7.19;100.00;96257.47;1035420;28;20302;-67
2022/09/20 00:57:34;;;;;;;;;;;;;;;7.19;100.00;96260.09;1032033;28;19914;-68
2022/09/20 00:58:04;;;;;;;;;;;;;;;7.19;100.00;96261.91;1032271;28;20193;-67
2022/09/20 00:58:36;;;;;;;;;;;;;;;7.19;100.00;96261.91;1035612;28;20391;-70
2022/09/20 00:59:09;;;;;;;;;;;;;;;7.19;100.00;96257.47;1040378;28;20043;-67
2022/09/20 00:59:40;;;;;;;;;;;;;;;7.19;100.00;96262.69;1042536;28;20298;-69
2022/09/20 01:00:11;;;;;;;;;;;;;;;7.20;100.00;96264.28;1036534;28;20017;-68
2022/09/20 01:00:41;;;;;;;;;;;;;;;7.20;100.00;96261.66;1039390;28;19920;-68
2022/09/20 01:01:12;;;;;;;;;;;;;;;7.19;100.00;96257.47;1034663;28;20031;-67
2022/09/20 01:01:42;;;;;;;;;;;;;;;7.19;100.00;96254.88;1035177;28;19945;-68
2022/09/20 01:02:13;;;;;;;;;;;;;;;7.19;100.00;96254.06;1031266;28;19953;-68
2022/09/20 01:02:47;;;;;;;;;;;;;;;7.20;100.00;96258.25;1035141;28;19924;-67
2022/09/20 01:03:19;;;;;;;;;;;;;;;7.18;100.00;96255.91;1035059;28;19910;-67
2022/09/20 01:03:49;;;;;;;;;;;;;;;7.16;100.00;96255.31;1036056;28;19917;-67
2022/09/20 01:04:20;;;;;;;;;;;;;;;7.16;100.00;96255.31;1035200;28;19918;-68
2022/09/20 01:04:50;;;;;;;;;;;;;;;7.17;100.00;96250.88;1035457;28;20008;-70
2022/09/20 01:05:21;;;;;;;;;;;;;;;7.16;100.00;96252.72;1035191;28;19913;-69
2022/09/20 01:05:51;;;;;;;;;;;;;;;7.16;100.00;96260.53;1035725;28;20357;-69
2022/09/20 01:06:22;;;;;;;;;;;;;;;7.16;100.00;96257.13;1039374;28;19905;-69
2022/09/20 01:06:52;;;;;;;;;;;;;;;7.15;100.00;96252.94;1035143;28;20473;-69
2022/09/20 01:07:23;;;;;;;;;;;;;;;7.14;100.00;96253.94;1035346;28;19964;-70
2022/09/20 01:07:53;;;;;;;;;;;;;;;7.13;100.00;96253.16;1035429;28;19972;-73
2022/09/20 01:08:24;;;;;;;;;;;;;;;7.13;100.00;96253.16;1043333;28;19909;-67
2022/09/20 01:08:55;;;;;;;;;;;;;;;7.12;100.00;96256.81;1027192;28;20059;-67
2022/09/20 01:09:25;;;;;;;;;;;;;;;7.11;100.00;96255.22;1027322;28;20005;-70
2022/09/20 01:09:55;;;;;;;;;;;;;;;7.10;100.00;96253.59;1031277;28;20282;-69
2022/09/20 01:10:26;;;;;;;;;;;;;;;7.10;100.00;96253.59;1034479;28;19914;-68
2022/09/20 01:10:56;;;;;;;;;;;;;;;7.09;100.00;96259.84;1034477;28;19910;-68
2022/09/20 01:11:27;;;;;;;;;;;;;;;7.09;100.00;96254.63;1035343;28;19909;-68
2022/09/20 01:11:57;;;;;;;;;;;;;;;7.10;100.00;96251.00;1035530;28;20000;-67
2022/09/20 01:12:29;;;;;;;;;;;;;;;7.09;100.00;96252.81;1041443;28;19908;-67
2022/09/20 01:12:59;;;;;;;;;;;;;;;7.10;100.00;96251.00;1043400;28;19909;-69
2022/09/20 01:13:30;;;;;;;;;;;;;;;7.09;100.00;96249.41;1043495;28;19913;-69
2022/09/20 01:14:00;;;;;;;;;;;;;;;7.08;100.00;96253.84;1043507;28;19913;-68
2022/09/20 01:14:30;;;;;;;;;;;;;;;7.10;100.00;96261.44;1039487;28;19939;-66
2022/09/20 01:15:02;;;;;;;;;;;;;;;7.08;100.00;96253.84;1039475;28;19952;-67
2022/09/20 01:15:32;;;;;;;;;;;;;;;7.09;100.00;96252.03;1035376;28;20409;-68
2022/09/20 01:16:03;;;;;;;;;;;;;;;7.09;100.00;96247.59;1035152;28;20106;-66
2022/09/20 01:16:33;;;;;;;;;;;;;;;7.08;100.00;96255.66;1031212;28;19906;-69
2022/09/20 01:17:03;;;;;;;;;;;;;;;7.06;100.00;96252.47;1031247;28;19906;-68
2022/09/20 01:17:34;;;;;;;;;;;;;;;7.07;100.00;96256.66;1031019;28;19917;-67
2022/09/20 01:18:05;;;;;;;;;;;;;;;7.08;100.00;96251.25;1035594;28;19910;-67
2022/09/20 01:18:35;;;;;;;;;;;;;;;7.07;100.00;96254.06;1035374;28;19984;-69
2022/09/20 01:19:08;;;;;;;;;;;;;;;7.07;100.00;96254.06;1031075;28;19909;-69
2022/09/20 01:19:46;;;;;;;;;;;;;;;7.08;100.00;96253.84;1035224;28;19918;-69
2022/09/20 01:20:18;;;;;;;;;;;;;;;7.08;100.00;96255.66;1039312;28;19932;-69
2022/09/20 01:20:48;;;;;;;;;;;;;;;7.06;100.00;96261.09;1040143;28;19909;-68
2022/09/20 01:21:18;;;;;;;;;;;;;;;7.06;100.00;96257.69;1037507;28;20704;-70
2022/09/20 01:21:49;;;;;;;;;;;;;;;7.06;100.00;96253.28;1039969;28;20532;-67
2022/09/20 01:22:38;;;;;;;;;;;;;;;7.08;100.00;96258.28;1047644;28;20001;-67
2022/09/20 01:23:11;;;;;;;;;;;;;;;7.05;100.00;96250.91;1043430;28;19917;-68
2022/09/20 01:23:41;;;;;;;;;;;;;;;7.05;100.00;96253.50;1040352;28;19917;-70
2022/09/20 01:24:20;;;;;;;;;;;;;;;7.04;100.00;96254.50;1039331;28;19966;-68
2022/09/20 01:24:59;;;;;;;;;;;;;;;7.03;100.00;96256.34;1039372;28;19917;-68
2022/09/20 01:25:48;;;;;;;;;;;;;;;7.03;100.00;96258.16;1037629;28;19917;-70
2022/09/20 01:26:38;;;;;;;;;;;;;;;7.00;100.00;96254.19;1043067;28;19923;-69
2022/09/20 01:27:14;;;;;;;;;;;;;;;6.98;100.00;96260.66;1045665;28;19917;-70
2022/09/20 01:27:48;;;;;;;;;;;;;;;6.96;100.00;96252.25;1045562;28;20657;-68
2022/09/20 01:28:18;;;;;;;;;;;;;;;6.94;100.00;96249.88;1031429;28;20361;-68
2022/09/20 01:28:49;;;;;;;;;;;;;;;6.93;100.00;96253.50;1031278;28;19922;-66
2022/09/20 01:29:19;;;;;;;;;;;;;;;6.92;100.00;96261.56;1035563;28;20435;-70
2022/09/20 01:29:52;;;;;;;;;;;;;;;6.91;100.00;96252.94;1039372;28;19951;-72
2022/09/20 01:30:23;;;;;;;;;;;;;;;6.90;100.00;96263.59;1047575;28;19917;-67
2022/09/20 01:31:12;;;;;;;;;;;;;;;6.88;100.00;96255.22;1042851;28;19920;-70
2022/09/20 01:31:44;;;;;;;;;;;;;;;6.85;100.00;96262.47;1043277;28;19974;-67
2022/09/20 01:32:15;;;;;;;;;;;;;;;6.81;100.00;96250.91;1039216;28;20472;-67
2022/09/20 01:32:45;;;;;;;;;;;;;;;6.80;100.00;96254.50;1031058;28;20435;-68
2022/09/20 01:33:21;;;;;;;;;;;;;;;6.80;100.00;96258.94;1030932;28;19917;-71
2022/09/20 01:33:52;;;;;;;;;;;;;;;6.77;100.00;96265.41;1027751;28;19918;-70
2022/09/20 01:34:25;;;;;;;;;;;;;;;6.74;100.00;96260.63;1038088;28;19917;-68
2022/09/20 01:34:56;;;;;;;;;;;;;;;6.73;100.00;96253.81;1043546;28;19932;-68
2022/09/20 01:35:27;;;;;;;;;;;;;;;6.72;100.00;96257.44;1030337;28;19941;-68
2022/09/20 01:35:58;;;;;;;;;;;;;;;6.71;100.00;96252.47;1026151;28;19924;-68
2022/09/20 01:36:46;;;;;;;;;;;;;;;6.70;100.00;96256.09;1035596;28;20742;-67
2022/09/20 01:37:23;;;;;;;;;;;;;;;6.67;100.00;96252.09;1044514;28;19917;-70
2022/09/20 01:37:58;;;;;;;;;;;;;;;6.65;100.00;96256.78;1043380;28;19976;-71
2022/09/20 01:38:28;;;;;;;;;;;;;;;6.64;100.00;96255.19;1039450;28;19909;-70
2022/09/20 01:38:58;;;;;;;;;;;;;;;6.65;100.00;96254.16;1040815;28;19951;-68
2022/09/20 01:39:37;;;;;;;;;;;;;;;6.63;100.00;96248.38;1043946;28;20389;-68
2022/09/20 01:40:12;;;;;;;;;;;;;;;6.64;100.00;96249.97;1043199;28;19979;-70
2022/09/20 01:40:51;;;;;;;;;;;;;;;6.65;100.00;96246.34;1035335;28;19920;-67
2022/09/20 01:41:27;;;;;;;;;;;;;;;6.64;100.00;96249.97;1034376;28;19924;-71
2022/09/20 01:41:58;;;;;;;;;;;;;;;6.63;100.00;96250.97;1040360;28;20620;-68
2022/09/20 01:42:31;;;;;;;;;;;;;;;6.61;100.00;96253.03;1036952;28;19949;-68
2022/09/20 01:43:05;;;;;;;;;;;;;;;6.62;100.00;96249.38;1038124;28;19916;-69
2022/09/20 01:43:36;;;;;;;;;;;;;;;6.62;100.00;96252.00;1040331;28;19971;-70
2022/09/20 01:44:14;;;;;;;;;;;;;;;6.62;100.00;96254.59;1037074;28;19967;-70
2022/09/20 01:44:59;;;;;;;;;;;;;;;6.63;100.00;96253.56;1037535;28;19924;-70
2022/09/20 01:45:30;;;;;;;;;;;;;;;6.64;100.00;96249.97;1032074;28;19957;-68
2022/09/20 01:46:03;;;;;;;;;;;;;;;6.63;100.00;96248.38;1035473;28;19909;-70
2022/09/20 01:46:34;;;;;;;;;;;;;;;6.62;100.00;96249.38;1041906;28;19975;-68
2022/09/20 01:47:09;;;;;;;;;;;;;;;6.62;100.00;96246.78;1035230;28;19984;-68
2022/09/20 01:47:43;;;;;;;;;;;;;;;6.64;100.00;96251.75;1032485;28;19949;-70
2022/09/20 01:48:23;;;;;;;;;;;;;;;6.64;100.00;96244.75;1026875;28;19938;-68
2022/09/20 01:48:55;;;;;;;;;;;;;;;6.61;100.00;96246.00;1029471;28;19910;-68
2022/09/20 01:49:30;;;;;;;;;;;;;;;6.62;100.00;96252.00;1037022;28;19909;-68
2022/09/20 01:50:10;;;;;;;;;;;;;;;6.63;100.00;96250.19;1038901;28;19952;-68
2022/09/20 01:50:59;;;;;;;;;;;;;;;6.65;100.00;96245.53;1043345;28;19939;-70
2022/09/20 01:51:34;;;;;;;;;;;;;;;6.67;100.00;96243.50;1038963;28;20390;-69
2022/09/20 01:52:07;;;;;;;;;;;;;;;6.63;100.00;96243.16;1039281;28;20390;-67
2022/09/20 01:52:38;;;;;;;;;;;;;;;6.63;100.00;96240.53;1039085;28;20000;-69
2022/09/20 01:53:08;;;;;;;;;;;;;;;6.60;100.00;96241.78;1040953;28;19913;-69
2022/09/20 01:53:51;;;;;;;;;;;;;;;6.59;100.00;96237.59;1043346;28;19917;-69
2022/09/20 01:54:33;;;;;;;;;;;;;;;6.59;100.00;96240.19;1039271;28;19905;-68
2022/09/20 01:55:23;;;;;;;;;;;;;;;6.58;100.00;96235.22;1036410;28;19905;-68
2022/09/20 01:55:53;;;;;;;;;;;;;;;6.56;100.00;96243.25;1039422;28;19909;-67
2022/09/20 01:56:23;;;;;;;;;;;;;;;6.55;100.00;96240.88;1043310;28;19979;-68
2022/09/20 01:56:59;;;;;;;;;;;;;;;6.54;100.00;96237.47;1038977;28;20309;-67
2022/09/20 01:58:05;;;;;;;;;;;;;;;6.53;100.00;96238.47;1037629;28;19917;-68
2022/09/20 01:58:52;;;;;;;;;;;;;;;6.52;100.00;96241.31;1044437;28;20020;-69
2022/09/20 01:59:40;;;;;;;;;;;;;;;6.50;100.00;96238.13;1042988;28;19909;-67
2022/09/20 02:00:13;;;;;;;;;;;;;;;6.49;100.00;96241.78;1040679;28;20730;-69
2022/09/20 02:01:01;;;;;;;;;;;;;;;6.47;100.00;96243.78;1043144;28;19912;-68
2022/09/20 02:01:51;;;;;;;;;;;;;;;6.45;100.00;96245.84;1043013;28;19908;-69
2022/09/20 02:02:24;;;;;;;;;;;;;;;6.42;100.00;96244.47;1043244;28;19905;-67
2022/09/20 02:03:11;;;;;;;;;;;;;;;6.41;100.00;96237.69;1043210;28;19955;-68
2022/09/20 02:04:00;;;;;;;;;;;;;;;6.41;100.00;96245.50;1043639;28;19995;-69
2022/09/20 02:04:33;;;;;;;;;;;;;;;6.41;100.00;96245.50;1043746;28;20023;-71
2022/09/20 02:05:09;;;;;;;;;;;;;;;6.41;100.00;96244.72;1043563;28;19920;-69
2022/09/20 02:06:15;;;;;;;;;;;;;;;6.42;100.00;96236.66;1043394;28;19971;-69
2022/09/20 02:07:01;;;;;;;;;;;;;;;6.40;100.00;96238.69;1034796;28;20012;-68
2022/09/20 02:07:51;;;;;;;;;;;;;;;6.41;100.00;96239.50;1037444;28;19971;-70
2022/09/20 02:08:21;;;;;;;;;;;;;;;6.42;100.00;96238.47;1038836;28;19959;-68
2022/09/20 02:09:10;;;;;;;;;;;;;;;6.39;100.00;96237.09;1039010;28;20394;-68
2022/09/20 02:09:43;;;;;;;;;;;;;;;6.38;100.00;96236.31;1046393;28;20520;-66
2022/09/20 02:10:26;;;;;;;;;;;;;;;6.38;100.00;96235.53;1042331;28;20303;-69
2022/09/20 02:11:02;;;;;;;;;;;;;;;6.37;100.00;96234.72;1038936;28;19925;-69
2022/09/20 02:11:32;;;;;;;;;;;;;;;6.37;100.00;96239.13;1039087;28;19917;-66
2022/09/20 02:12:16;;;;;;;;;;;;;;;6.36;100.00;96233.13;1042174;28;20366;-70
2022/09/20 02:12:53;;;;;;;;;;;;;;;6.35;100.00;96236.75;1040509;28;20163;-67
2022/09/20 02:13:28;;;;;;;;;;;;;;;6.35;100.00;96230.75;1038966;28;20237;-69
2022/09/20 02:14:16;;;;;;;;;;;;;;;6.36;100.00;96237.53;1034882;28;19928;-67
2022/09/20 02:14:49;;;;;;;;;;;;;;;6.35;100.00;96226.31;1039018;28;19967;-67
2022/09/20 02:15:22;;;;;;;;;;;;;;;6.35;100.00;96235.97;1042711;28;19917;-69
2022/09/20 02:16:12;;;;;;;;;;;;;;;6.35;100.00;96236.75;1046298;28;19912;-67
2022/09/20 02:16:42;;;;;;;;;;;;;;;6.36;100.00;96229.72;1043457;28;19916;-67
2022/09/20 02:17:13;;;;;;;;;;;;;;;6.37;100.00;96237.34;1039127;28;19960;-69
2022/09/20 02:17:58;;;;;;;;;;;;;;;6.38;100.00;96231.09;1032210;28;19918;-67
2022/09/20 02:18:32;;;;;;;;;;;;;;;6.38;100.00;96238.13;1033130;28;20256;-68
2022/09/20 02:19:14;;;;;;;;;;;;;;;6.38;100.00;96236.31;1034853;28;20453;-68
2022/09/20 02:20:01;;;;;;;;;;;;;;;6.41;100.00;96231.69;1043110;28;19924;-67
2022/09/20 02:20:51;;;;;;;;;;;;;;;6.42;100.00;96238.47;1039295;28;19917;-68
2022/09/20 02:21:40;;;;;;;;;;;;;;;6.48;100.00;96234.97;1042346;28;19966;-69
2022/09/20 02:22:28;;;;;;;;;;;;;;;6.50;100.00;96235.53;1038907;28;20388;-69
2022/09/20 02:23:02;;;;;;;;;;;;;;;6.53;100.00;96232.47;1039157;28;19909;-67
2022/09/20 02:23:41;;;;;;;;;;;;;;;6.52;100.00;96236.13;1039305;28;19926;-67
2022/09/20 02:24:14;;;;;;;;;;;;;;;6.54;100.00;96239.31;1042856;28;19909;-71
2022/09/20 02:25:07;;;;;;;;;;;;;;;6.54;100.00;96239.31;1041397;28;19909;-69
2022/09/20 02:26:03;;;;;;;;;;;;;;;6.54;100.00;96247.13;1043242;28;19927;-68
2022/09/20 02:26:52;;;;;;;;;;;;;;;6.55;100.00;96240.88;1034692;28;20442;-67
2022/09/20 02:27:23;;;;;;;;;;;;;;;6.57;100.00;96244.84;1034738;28;19917;-68
2022/09/20 02:27:59;;;;;;;;;;;;;;;6.57;100.00;96239.66;1040915;28;20011;-66
2022/09/20 02:28:35;;;;;;;;;;;;;;;6.57;100.00;96236.22;1042222;28;20558;-68
2022/09/20 02:29:05;;;;;;;;;;;;;;;6.53;100.00;96245.50;1044768;28;19920;-69
2022/09/20 02:29:47;;;;;;;;;;;;;;;6.55;100.00;96238.28;1047678;28;19912;-68
2022/09/20 02:30:24;;;;;;;;;;;;;;;6.57;100.00;96244.84;1042573;28;19913;-68
2022/09/20 02:30:55;;;;;;;;;;;;;;;6.54;100.00;96249.72;1042117;28;19913;-69
2022/09/20 02:31:44;;;;;;;;;;;;;;;6.55;100.00;96244.28;1039593;28;19909;-67
2022/09/20 02:32:14;;;;;;;;;;;;;;;6.56;100.00;96247.66;1046820;28;20404;-69
2022/09/20 02:32:47;;;;;;;;;;;;;;;6.56;100.00;96245.06;1046938;28;19908;-67
2022/09/20 02:33:27;;;;;;;;;;;;;;;6.57;100.00;96244.03;1044221;28;19912;-69
2022/09/20 02:33:57;;;;;;;;;;;;;;;6.56;100.00;96250.28;1048056;28;19908;-67
2022/09/20 02:34:46;;;;;;;;;;;;;;;6.58;100.00;96246.44;1047893;28;20007;-67
2022/09/20 02:35:22;;;;;;;;;;;;;;;6.58;100.00;96251.66;1043856;28;20343;-67
2022/09/20 02:36:19;;;;;;;;;;;;;;;6.54;100.00;96250.53;1043906;28;19913;-67
2022/09/20 02:37:08;;;;;;;;;;;;;;;6.55;100.00;96252.09;1042638;28;19923;-67
2022/09/20 02:37:49;;;;;;;;;;;;;;;6.52;100.00;96252.53;1048089;28;20329;-67
2022/09/20 02:38:20;;;;;;;;;;;;;;;6.54;100.00;96255.72;1044038;28;19912;-70
2022/09/20 02:38:58;;;;;;;;;;;;;;;6.55;100.00;96256.53;1035550;28;19909;-68
2022/09/20 02:39:54;;;;;;;;;;;;;;;6.55;100.00;96259.13;1031461;28;20388;-67
2022/09/20 02:40:34;;;;;;;;;;;;;;;6.56;100.00;96250.28;1031677;28;19959;-67
2022/09/20 02:41:04;;;;;;;;;;;;;;;6.55;100.00;96259.13;1032195;28;20582;-68
2022/09/20 02:41:37;;;;;;;;;;;;;;;6.52;100.00;96257.75;1031379;28;20001;-69
2022/09/20 02:42:09;;;;;;;;;;;;;;;6.52;100.00;96256.97;1034850;28;19913;-69
2022/09/20 02:42:43;;;;;;;;;;;;;;;6.51;100.00;96250.16;1040790;28;19948;-70
2022/09/20 02:43:13;;;;;;;;;;;;;;;6.51;100.00;96264.00;1039591;28;20390;-67
2022/09/20 02:44:02;;;;;;;;;;;;;;;6.52;100.00;96256.97;1039745;28;19921;-68
2022/09/20 02:44:38;;;;;;;;;;;;;;;6.53;100.00;96261.16;1042492;28;20305;-66
2022/09/20 02:45:11;;;;;;;;;;;;;;;6.51;100.00;96260.59;1042908;28;20335;-68
2022/09/20 02:45:51;;;;;;;;;;;;;;;6.49;100.00;96257.41;1039673;28;20008;-67
2022/09/20 02:46:24;;;;;;;;;;;;;;;6.49;100.00;96257.41;1039224;28;19913;-69
2022/09/20 02:46:59;;;;;;;;;;;;;;;6.48;100.00;96263.66;1037518;28;19917;-68
2022/09/20 02:47:34;;;;;;;;;;;;;;;6.49;100.00;96257.41;1036187;28;19949;-67
2022/09/20 02:48:04;;;;;;;;;;;;;;;6.48;100.00;96261.03;1037389;28;19913;-68
2022/09/20 02:48:37;;;;;;;;;;;;;;;6.48;100.00;96259.22;1035627;28;19917;-68
2022/09/20 02:49:27;;;;;;;;;;;;;;;6.49;100.00;96260.00;1031460;28;19914;-69
2022/09/20 02:49:59;;;;;;;;;;;;;;;6.48;100.00;96258.44;1034542;28;19921;-66
2022/09/20 02:50:41;;;;;;;;;;;;;;;6.49;100.00;96260.00;1038942;28;19958;-69
2022/09/20 02:51:22;;;;;;;;;;;;;;;6.49;100.00;96262.63;1038832;28;19917;-68
2022/09/20 02:51:57;;;;;;;;;;;;;;;6.48;100.00;96256.63;1035645;28;19956;-67
2022/09/20 02:52:46;;;;;;;;;;;;;;;6.49;100.00;96260.00;1035600;28;19917;-67
2022/09/20 02:53:30;;;;;;;;;;;;;;;6.50;100.00;96261.59;1035329;28;20335;-68
2022/09/20 02:54:19;;;;;;;;;;;;;;;6.48;100.00;96259.22;1039712;28;19928;-68
2022/09/20 02:54:57;;;;;;;;;;;;;;;6.48;100.00;96266.25;1039774;28;20381;-66
2022/09/20 02:55:39;;;;;;;;;;;;;;;6.49;100.00;96267.84;1039482;28;19917;-69
2022/09/20 02:56:21;;;;;;;;;;;;;;;6.50;100.00;96269.41;1039792;28;19964;-67
2022/09/20 02:57:09;;;;;;;;;;;;;;;6.49;100.00;96260.81;1035442;28;19918;-68
2022/09/20 02:57:58;;;;;;;;;;;;;;;6.50;100.00;96259.00;1036026;28;20431;-69
2022/09/20 02:58:39;;;;;;;;;;;;;;;6.47;100.00;96264.66;1041188;28;20509;-69
2022/09/20 02:59:19;;;;;;;;;;;;;;;6.44;100.00;96262.47;1044011;28;19938;-70
2022/09/20 02:59:52;;;;;;;;;;;;;;;6.45;100.00;96261.50;1039816;28;20051;-68
2022/09/20 03:00:24;;;;;;;;;;;;;;;6.46;100.00;96263.06;1039922;28;19920;-67
2022/09/20 03:00:58;;;;;;;;;;;;;;;6.46;100.00;96260.47;1033003;28;20364;-69
2022/09/20 03:01:39;;;;;;;;;;;;;;;6.47;100.00;96259.44;1030854;28;19921;-67
2022/09/20 03:02:22;;;;;;;;;;;;;;;6.49;100.00;96262.63;1029653;28;19945;-68
2022/09/20 03:03:10;;;;;;;;;;;;;;;6.48;100.00;96266.25;1031507;28;19917;-70
2022/09/20 03:03:43;;;;;;;;;;;;;;;6.48;100.00;96266.25;1031933;28;20481;-68
2022/09/20 03:04:26;;;;;;;;;;;;;;;6.49;100.00;96260.00;1035720;28;19913;-67